NCAR-RAP Real-Time Weather Data

Output produced by METARs form (12 May 2021  12:34 UTC)
found at http://weather.rap.ucar.edu/surface/
 
KAHN 121230Z 04004KT 3SM RA BR BKN008 OVC016 17/16 A3009 RMK AO2 CIG 004V013 P0027 T01720156
KAHN 121220Z 02006KT 3SM RA BR SCT008 OVC017 17/16 A3009 RMK AO2 P0025 T01720156
KAHN 121215Z 03006KT 2 1/2SM RA BR SCT008 BKN014 OVC027 17/15 A3009 RMK AO2 P0023 T01720150
KAHN 121208Z 06006KT 1 1/2SM RA BR BKN007 OVC024 17/15 A3009 RMK AO2 P0021 T01720150
KAHN 121158Z 03005KT 3/4SM +RA BR BKN007 OVC024 17/15 A3009 RMK AO2 P0010 T01720150
KAHN 121151Z 05005KT 1 1/2SM +RA BR BKN007 OVC028 17/15 A3008 RMK AO2 RAB04 SLP182 P0015 60019 70019 T01720150 10200 20172 53018
KAHN 121143Z 02003KT 1 1/4SM +RA BR BKN007 OVC010 17/16 A3008 RMK AO2 RAB04 P0011 T01720156
KAHN 121131Z 02005KT 1 3/4SM +RA BR OVC010 17/16 A3007 RMK AO2 RAB04 CIG 005V012 P0002 T01720156
KAHN 121051Z AUTO 04004KT 10SM OVC014 17/15 A3005 RMK AO2 RAB0952E45 SLP171 P0001 T01720150
KAHN 121034Z AUTO 03004KT 9SM -RA OVC014 17/16 A3005 RMK AO2 RAB0952 P0000 T01720156
KAHN 121020Z AUTO 36003KT 9SM -RA BKN015 BKN046 OVC090 18/16 A3004 RMK AO2 RAB0952 P0000 T01780156
KAHN 120951Z AUTO 05006KT 10SM SCT017 BKN055 OVC070 18/15 A3004 RMK AO2 RAB02E27 SLP166 P0003 T01780150
KAHN 120851Z AUTO 06005KT 10SM SCT021 BKN045 OVC090 18/14 A3003 RMK AO2 SLP162 60000 T01830144 56013 $
KAHN 120830Z AUTO 06007KT 10SM SCT022 OVC095 18/14 A3003 RMK AO2 T01830144 $
KAHN 120810Z AUTO 06006KT 10SM BKN022 OVC037 19/15 A3004 RMK AO2 T01890150 $
KAHN 120751Z AUTO 05006KT 10SM SCT022 SCT031 OVC041 19/15 A3005 RMK AO2 SLP168 T01890150 $
KAHN 120651Z AUTO 07008KT 10SM SCT032 OVC042 19/16 A3005 RMK AO2 RAE0552 SLP169 P0000 T01940156 $
KAHN 120551Z AUTO 05006KT 10SM -RA OVC100 20/17 A3007 RMK AO2 RAB43 SLP176 P0000 60000 T02000167 10239 20200 56008 $
KAHN 120451Z AUTO 05005KT 10SM BKN033 OVC110 21/17 A3007 RMK AO2 SLP178 T02060167 402720167 $
KAHN 120351Z AUTO 00000KT 10SM OVC030 21/17 A3008 RMK AO2 SLP181 T02110172 $
KAHN 120302Z AUTO 00000KT 10SM BKN026 BKN070 BKN120 21/17 A3009 RMK AO2 T02060172 $
KAHN 120251Z AUTO 00000KT 10SM SCT026 SCT070 BKN120 21/17 A3009 RMK AO2 SLP185 T02060172 53019 $
KAHN 120151Z AUTO 00000KT 10SM BKN070 21/18 A3007 RMK AO2 SLP177 T02110178 $
KAHN 120051Z AUTO 00000KT 10SM BKN038 OVC070 23/17 A3005 RMK AO2 SLP170 T02280172
KAHN 112351Z AUTO 01003KT 10SM OVC037 24/17 A3004 RMK AO2 SLP165 T02390167 10267 20239 51004
KAHN 112251Z AUTO 32004KT 10SM FEW040 BKN080 25/17 A3003 RMK AO2 SLP164 T02500167
KAHN 112151Z AUTO 03003KT 10SM BKN037 OVC050 26/17 A3004 RMK AO2 SLP166 T02560172
KAHN 112051Z AUTO 00000KT 10SM FEW042 26/17 A3002 RMK AO2 SLP160 T02610167